Time;durP1;ratioP1;P1;durP2;ratioP2;P2;SDS_P1;SDS_P2;PMS_P1;PMS_P2;Temp;Humidity;BMP_temperature;BMP_pressure;BME280_temperature;BME280_humidity;BME280_pressure;Samples;Min_cycle;Max_cycle;Signal;HPM_P1;HPM_P2
2023/06/18 00:00:22;;;;;;;;;;;18.10;81.20;;;;;;5085678;28;19932;-39
2023/06/18 00:02:48;;;;;;;;;;;18.10;81.30;;;;;;5075377;28;19985;-39
2023/06/18 00:05:15;;;;;;;;;;;18.10;81.60;;;;;;5064480;28;20020;-40
2023/06/18 00:07:43;;;;;;;;;;;18.10;81.50;;;;;;5079334;28;20037;-40
2023/06/18 00:10:10;;;;;;;;;;;18.10;81.70;;;;;;5080944;28;19929;-40
2023/06/18 00:12:37;;;;;;;;;;;18.10;81.60;;;;;;5052618;28;19924;-39
2023/06/18 00:15:04;;;;;;;;;;;18.10;82.10;;;;;;5054692;28;20338;-39
2023/06/18 00:17:30;;;;;;;;;;;18.00;81.40;;;;;;5073627;28;19963;-40
2023/06/18 00:19:57;;;;;;;;;;;18.00;81.20;;;;;;5075977;28;20308;-40
2023/06/18 00:22:24;;;;;;;;;;;18.00;81.90;;;;;;5086378;28;19928;-39
2023/06/18 00:24:52;;;;;;;;;;;18.00;81.60;;;;;;5073362;28;19996;-39
2023/06/18 00:27:18;;;;;;;;;;;18.00;81.80;;;;;;5074301;28;19968;-40
2023/06/18 00:29:46;;;;;;;;;;;17.90;82.30;;;;;;5088332;28;20400;-36
2023/06/18 00:32:13;;;;;;;;;;;17.90;82.10;;;;;;5057879;28;20743;-39
2023/06/18 00:34:41;;;;;;;;;;;17.90;81.80;;;;;;5075552;28;19970;-37
2023/06/18 00:37:09;;;;;;;;;;;17.90;82.30;;;;;;5074850;28;20300;-40
2023/06/18 00:39:36;;;;;;;;;;;17.90;82.50;;;;;;5061767;28;19972;-40
2023/06/18 00:42:05;;;;;;;;;;;17.80;83.10;;;;;;5056323;28;19929;-39
2023/06/18 00:44:32;;;;;;;;;;;17.80;83.40;;;;;;5071848;28;19928;-40
2023/06/18 00:46:59;;;;;;;;;;;17.70;83.20;;;;;;5075546;28;20021;-40
2023/06/18 00:49:26;;;;;;;;;;;17.60;84.00;;;;;;5075098;28;19939;-38
2023/06/18 00:51:53;;;;;;;;;;;17.60;83.10;;;;;;5078480;28;19974;-39
2023/06/18 00:54:20;;;;;;;;;;;17.60;83.80;;;;;;5073596;28;20438;-40
2023/06/18 00:56:50;;;;;;;;;;;17.60;83.90;;;;;;5056629;28;19932;-39
2023/06/18 00:59:22;;;;;;;;;;;17.60;86.20;;;;;;5090527;28;20014;-38
2023/06/18 01:01:49;;;;;;;;;;;17.60;85.00;;;;;;5079964;28;20379;-40
2023/06/18 01:04:17;;;;;;;;;;;17.50;85.10;;;;;;5074212;28;19974;-40
2023/06/18 01:06:43;;;;;;;;;;;17.50;85.40;;;;;;5073798;28;19936;-39
2023/06/18 01:09:12;;;;;;;;;;;17.50;85.80;;;;;;5073881;28;19925;-41
2023/06/18 01:11:40;;;;;;;;;;;17.40;85.00;;;;;;5078439;28;20288;-39
2023/06/18 01:14:09;;;;;;;;;;;17.40;84.70;;;;;;5070127;28;19924;-41
2023/06/18 01:16:37;;;;;;;;;;;17.40;84.50;;;;;;5063990;28;19983;-40
2023/06/18 01:19:04;;;;;;;;;;;17.40;85.00;;;;;;5081648;28;19924;-40
2023/06/18 01:21:31;;;;;;;;;;;17.40;85.70;;;;;;5073759;28;19989;-41
2023/06/18 01:23:59;;;;;;;;;;;17.30;85.50;;;;;;5073850;28;19939;-36
2023/06/18 01:26:26;;;;;;;;;;;17.30;85.30;;;;;;5077887;28;20295;-40
2023/06/18 01:28:53;;;;;;;;;;;17.30;86.10;;;;;;5066635;28;19932;-40
2023/06/18 01:31:21;;;;;;;;;;;17.30;85.90;;;;;;5079250;28;20368;-41
2023/06/18 01:33:51;;;;;;;;;;;17.30;86.10;;;;;;5073436;28;19969;-40
2023/06/18 01:36:24;;;;;;;;;;;17.20;85.70;;;;;;5082439;28;19925;-40
2023/06/18 01:38:51;;;;;;;;;;;17.20;86.10;;;;;;5074265;28;20299;-39
2023/06/18 01:41:19;;;;;;;;;;;17.20;86.10;;;;;;5081839;28;19925;-39
2023/06/18 01:43:48;;;;;;;;;;;17.20;86.40;;;;;;5072509;28;20255;-40
2023/06/18 01:46:14;;;;;;;;;;;17.10;86.60;;;;;;5068845;28;19924;-38
2023/06/18 01:48:42;;;;;;;;;;;17.10;86.40;;;;;;5056608;28;19964;-40
2023/06/18 01:51:10;;;;;;;;;;;17.10;87.20;;;;;;5060647;28;20556;-40
2023/06/18 01:53:37;;;;;;;;;;;17.10;87.20;;;;;;5072315;28;20357;-41
2023/06/18 01:56:03;;;;;;;;;;;17.00;87.50;;;;;;5055583;28;19982;-40
2023/06/18 01:58:36;;;;;;;;;;;17.00;89.50;;;;;;5049636;28;19978;-41
2023/06/18 02:01:02;;;;;;;;;;;17.00;88.70;;;;;;5073903;28;19928;-39
2023/06/18 02:03:29;;;;;;;;;;;16.90;88.20;;;;;;5067613;28;19924;-41
2023/06/18 02:05:56;;;;;;;;;;;16.90;88.30;;;;;;5059972;28;19986;-40
2023/06/18 02:08:24;;;;;;;;;;;16.90;88.50;;;;;;5048937;28;19929;-40
2023/06/18 02:10:50;;;;;;;;;;;16.90;89.50;;;;;;5079618;28;20304;-38
2023/06/18 02:13:17;;;;;;;;;;;16.80;89.30;;;;;;5057816;28;19924;-40
2023/06/18 02:15:44;;;;;;;;;;;16.80;90.00;;;;;;5072974;28;20330;-40
2023/06/18 02:18:11;;;;;;;;;;;16.70;90.40;;;;;;5071231;28;19924;-36
2023/06/18 02:20:38;;;;;;;;;;;16.70;90.10;;;;;;5072836;28;19924;-36
2023/06/18 02:23:05;;;;;;;;;;;16.70;89.60;;;;;;5073242;28;19924;-37
2023/06/18 02:25:33;;;;;;;;;;;16.70;90.10;;;;;;5063920;28;19933;-40
2023/06/18 02:28:00;;;;;;;;;;;16.70;90.10;;;;;;5054020;28;19931;-38
2023/06/18 02:30:28;;;;;;;;;;;16.60;90.00;;;;;;5073045;28;19930;-39
2023/06/18 02:32:55;;;;;;;;;;;16.60;90.20;;;;;;5072783;28;20359;-40
2023/06/18 02:35:22;;;;;;;;;;;16.50;90.20;;;;;;5072177;28;19924;-40
2023/06/18 02:37:48;;;;;;;;;;;16.50;90.00;;;;;;5083247;28;19969;-41
2023/06/18 02:40:15;;;;;;;;;;;16.50;90.10;;;;;;5087678;28;19925;-38
2023/06/18 02:42:47;;;;;;;;;;;16.50;90.40;;;;;;5084828;28;19925;-41
2023/06/18 02:45:15;;;;;;;;;;;16.50;90.30;;;;;;5071681;28;20383;-37
2023/06/18 02:47:41;;;;;;;;;;;16.50;90.20;;;;;;5073186;28;19928;-41
2023/06/18 02:50:08;;;;;;;;;;;16.40;90.20;;;;;;5054865;28;19931;-41
2023/06/18 02:52:35;;;;;;;;;;;16.40;90.30;;;;;;5059016;28;19925;-39
2023/06/18 02:55:02;;;;;;;;;;;16.40;90.40;;;;;;5061436;28;19924;-40
2023/06/18 02:57:28;;;;;;;;;;;16.40;90.40;;;;;;5071694;28;19931;-40
2023/06/18 03:00:02;;;;;;;;;;;16.40;90.90;;;;;;5074993;28;20045;-36
2023/06/18 03:02:29;;;;;;;;;;;16.30;90.80;;;;;;5073571;28;19924;-40
2023/06/18 03:04:56;;;;;;;;;;;16.30;90.70;;;;;;5087528;28;19977;-35
2023/06/18 03:07:24;;;;;;;;;;;16.30;90.80;;;;;;5080389;28;20012;-39
2023/06/18 03:09:51;;;;;;;;;;;16.30;90.80;;;;;;5077409;28;19924;-38
2023/06/18 03:12:17;;;;;;;;;;;16.30;91.00;;;;;;5078098;28;20395;-40
2023/06/18 03:14:44;;;;;;;;;;;16.20;91.10;;;;;;5069505;28;19975;-40
2023/06/18 03:17:12;;;;;;;;;;;16.20;91.50;;;;;;5067845;28;19966;-40
2023/06/18 03:19:39;;;;;;;;;;;16.20;91.60;;;;;;5053969;28;20017;-39
2023/06/18 03:22:06;;;;;;;;;;;16.20;91.30;;;;;;5071256;28;19968;-36
2023/06/18 03:24:33;;;;;;;;;;;16.20;91.50;;;;;;5087004;28;19928;-40
2023/06/18 03:26:59;;;;;;;;;;;16.20;91.90;;;;;;5058216;28;19924;-39
2023/06/18 03:29:26;;;;;;;;;;;16.10;92.20;;;;;;5053823;28;19994;-36
2023/06/18 03:31:53;;;;;;;;;;;16.10;92.50;;;;;;5071157;28;19924;-40
2023/06/18 03:34:21;;;;;;;;;;;16.10;94.40;;;;;;5053635;28;20399;-39
2023/06/18 03:36:48;;;;;;;;;;;16.10;95.30;;;;;;5070589;28;19963;-39
2023/06/18 03:39:15;;;;;;;;;;;16.00;96.20;;;;;;5070590;28;20017;-38
2023/06/18 03:41:42;;;;;;;;;;;16.00;95.00;;;;;;5071128;28;19924;-41
2023/06/18 03:44:09;;;;;;;;;;;16.00;95.70;;;;;;5058901;28;19925;-41
2023/06/18 03:46:35;;;;;;;;;;;16.00;95.90;;;;;;5066141;28;20299;-40
2023/06/18 03:49:02;;;;;;;;;;;16.00;95.50;;;;;;5059216;28;19971;-36
2023/06/18 03:51:30;;;;;;;;;;;16.00;96.80;;;;;;5053657;28;19971;-40
2023/06/18 03:53:56;;;;;;;;;;;15.90;98.20;;;;;;5071582;28;19931;-40
2023/06/18 03:56:23;;;;;;;;;;;15.90;99.10;;;;;;5071113;28;19932;-41
2023/06/18 03:58:50;;;;;;;;;;;15.90;99.00;;;;;;5053914;28;19924;-39
2023/06/18 04:01:16;;;;;;;;;;;15.90;98.90;;;;;;5079225;28;19964;-40
2023/06/18 04:03:43;;;;;;;;;;;15.90;99.10;;;;;;5066111;28;19963;-39
2023/06/18 04:06:10;;;;;;;;;;;15.90;98.50;;;;;;5070698;28;19986;-40
2023/06/18 04:08:38;;;;;;;;;;;15.90;99.00;;;;;;5054157;28;19924;-40
2023/06/18 04:11:05;;;;;;;;;;;15.90;99.40;;;;;;5072303;28;20387;-40
2023/06/18 04:13:31;;;;;;;;;;;15.90;99.90;;;;;;5066872;28;20437;-41
2023/06/18 04:15:58;;;;;;;;;;;15.90;99.90;;;;;;5057867;28;19925;-40
2023/06/18 04:18:25;;;;;;;;;;;15.90;99.90;;;;;;5048149;28;20411;-40
2023/06/18 04:20:51;;;;;;;;;;;15.90;99.90;;;;;;5072366;28;19993;-40
2023/06/18 04:23:18;;;;;;;;;;;15.90;99.90;;;;;;5072146;28;19931;-39
2023/06/18 04:25:46;;;;;;;;;;;15.80;99.90;;;;;;5054620;28;19989;-41
2023/06/18 04:28:13;;;;;;;;;;;15.80;99.90;;;;;;5070038;28;19978;-40
2023/06/18 04:30:39;;;;;;;;;;;15.80;99.90;;;;;;5070355;28;20467;-40
2023/06/18 04:33:06;;;;;;;;;;;15.90;99.90;;;;;;5070231;28;19928;-39
2023/06/18 04:35:33;;;;;;;;;;;15.90;99.90;;;;;;5071544;28;19925;-40
2023/06/18 04:37:59;;;;;;;;;;;16.00;99.90;;;;;;5072520;28;20020;-40
2023/06/18 04:40:26;;;;;;;;;;;16.00;99.90;;;;;;5052726;28;20009;-40
2023/06/18 04:42:54;;;;;;;;;;;16.00;99.90;;;;;;5078813;28;19938;-40
2023/06/18 04:45:21;;;;;;;;;;;16.10;99.90;;;;;;5070681;28;19932;-39
2023/06/18 04:47:47;;;;;;;;;;;16.10;99.90;;;;;;5071684;28;20011;-39
2023/06/18 04:50:14;;;;;;;;;;;16.10;99.90;;;;;;5087581;28;20037;-34
2023/06/18 04:52:41;;;;;;;;;;;16.10;99.90;;;;;;5078062;28;19929;-39
2023/06/18 04:55:08;;;;;;;;;;;16.20;99.90;;;;;;5074842;28;19960;-40
2023/06/18 04:57:35;;;;;;;;;;;16.20;99.90;;;;;;5053049;28;19929;-40
2023/06/18 05:00:04;;;;;;;;;;;16.20;99.90;;;;;;5083385;28;19924;-41
2023/06/18 05:02:30;;;;;;;;;;;16.30;99.90;;;;;;5074780;28;20331;-40
2023/06/18 05:04:57;;;;;;;;;;;16.30;99.90;;;;;;5055902;28;19925;-39
2023/06/18 05:07:24;;;;;;;;;;;16.40;99.90;;;;;;5070969;28;20379;-41
2023/06/18 05:09:51;;;;;;;;;;;16.40;99.90;;;;;;5053866;28;19928;-39
2023/06/18 05:12:17;;;;;;;;;;;16.50;99.90;;;;;;5046855;28;19964;-40
2023/06/18 05:14:44;;;;;;;;;;;16.50;99.90;;;;;;5055951;28;19971;-40
2023/06/18 05:17:12;;;;;;;;;;;16.50;99.90;;;;;;5068997;28;19929;-40
2023/06/18 05:19:39;;;;;;;;;;;16.60;99.90;;;;;;5074012;28;20338;-39
2023/06/18 05:22:06;;;;;;;;;;;16.60;99.90;;;;;;5067083;28;19972;-39
2023/06/18 05:24:32;;;;;;;;;;;16.70;99.90;;;;;;5073684;28;19972;-41
2023/06/18 05:26:59;;;;;;;;;;;16.70;99.90;;;;;;5045124;28;20015;-39
2023/06/18 05:29:26;;;;;;;;;;;16.90;99.90;;;;;;5074560;28;19928;-39
2023/06/18 05:31:52;;;;;;;;;;;16.90;99.90;;;;;;5056418;28;19986;-40
2023/06/18 05:34:20;;;;;;;;;;;17.00;99.90;;;;;;5073238;28;19986;-39
2023/06/18 05:36:47;;;;;;;;;;;17.10;99.90;;;;;;5073512;28;19928;-40
2023/06/18 05:39:14;;;;;;;;;;;17.20;99.90;;;;;;5053161;28;19982;-39
2023/06/18 05:41:41;;;;;;;;;;;17.30;99.90;;;;;;5073722;28;19925;-39
2023/06/18 05:44:07;;;;;;;;;;;17.40;99.90;;;;;;5074105;28;19928;-41
2023/06/18 05:46:34;;;;;;;;;;;17.50;99.90;;;;;;5073093;28;20031;-41
2023/06/18 05:49:00;;;;;;;;;;;17.60;99.90;;;;;;5078354;28;19931;-39
2023/06/18 05:51:28;;;;;;;;;;;17.80;99.90;;;;;;5072826;28;19928;-40
2023/06/18 05:53:55;;;;;;;;;;;17.90;99.90;;;;;;5073125;28;19928;-39
2023/06/18 05:56:22;;;;;;;;;;;18.10;99.90;;;;;;5056734;28;19928;-40
2023/06/18 05:58:48;;;;;;;;;;;18.20;99.90;;;;;;5072862;28;20349;-41
2023/06/18 06:01:15;;;;;;;;;;;18.30;99.90;;;;;;5044117;28;19932;-38
2023/06/18 06:03:42;;;;;;;;;;;18.30;99.90;;;;;;5065897;28;19924;-40
2023/06/18 06:06:08;;;;;;;;;;;18.50;99.90;;;;;;5055211;28;20380;-41
2023/06/18 06:08:36;;;;;;;;;;;18.60;99.90;;;;;;5056189;28;20403;-40
2023/06/18 06:11:03;;;;;;;;;;;18.70;99.90;;;;;;5054818;28;19931;-39
2023/06/18 06:13:29;;;;;;;;;;;18.80;99.90;;;;;;5055563;28;19982;-40
2023/06/18 06:15:56;;;;;;;;;;;18.90;99.90;;;;;;5074749;28;19928;-41
2023/06/18 06:18:23;;;;;;;;;;;19.00;99.90;;;;;;5072283;28;19980;-40
2023/06/18 06:20:49;;;;;;;;;;;19.10;99.90;;;;;;5056212;28;19968;-38
2023/06/18 06:23:16;;;;;;;;;;;19.20;99.90;;;;;;5070525;28;19932;-41
2023/06/18 06:25:44;;;;;;;;;;;19.30;99.90;;;;;;5055484;28;19994;-41
2023/06/18 06:28:11;;;;;;;;;;;19.50;99.90;;;;;;5068604;28;19978;-41
2023/06/18 06:30:38;;;;;;;;;;;19.60;99.90;;;;;;5048995;28;19955;-41
2023/06/18 06:33:04;;;;;;;;;;;19.70;99.90;;;;;;5076372;28;19929;-41
2023/06/18 06:35:31;;;;;;;;;;;19.80;99.90;;;;;;5066757;28;19990;-41
2023/06/18 06:37:58;;;;;;;;;;;20.00;99.90;;;;;;5068693;28;20522;-40
2023/06/18 06:40:24;;;;;;;;;;;20.10;99.90;;;;;;5062357;28;19924;-41
2023/06/18 06:42:52;;;;;;;;;;;20.20;99.90;;;;;;5071325;28;19925;-40
2023/06/18 06:45:19;;;;;;;;;;;20.30;99.90;;;;;;5070940;28;20292;-41
2023/06/18 06:47:48;;;;;;;;;;;20.40;99.90;;;;;;5072284;28;19932;-40
2023/06/18 06:50:14;;;;;;;;;;;20.60;99.90;;;;;;5073447;28;19933;-37
2023/06/18 06:52:41;;;;;;;;;;;20.70;99.90;;;;;;5071143;28;19970;-40
2023/06/18 06:55:08;;;;;;;;;;;20.90;99.90;;;;;;5076998;28;19924;-41
2023/06/18 06:57:35;;;;;;;;;;;21.20;99.90;;;;;;5073171;28;20105;-41
2023/06/18 07:00:03;;;;;;;;;;;21.40;99.90;;;;;;5066512;28;19936;-41
2023/06/18 07:02:33;;;;;;;;;;;21.60;99.90;;;;;;5056663;28;20431;-40
2023/06/18 07:05:06;;;;;;;;;;;21.80;99.90;;;;;;5076290;28;19967;-41
2023/06/18 07:07:32;;;;;;;;;;;22.00;99.90;;;;;;5070766;28;19942;-39
2023/06/18 07:09:59;;;;;;;;;;;22.10;99.90;;;;;;5048922;28;20590;-39
2023/06/18 07:12:26;;;;;;;;;;;22.30;99.90;;;;;;5049681;28;20334;-41
2023/06/18 07:14:52;;;;;;;;;;;22.30;99.20;;;;;;5079741;28;19994;-41
2023/06/18 07:17:20;;;;;;;;;;;22.40;99.30;;;;;;5072640;28;20277;-40
2023/06/18 07:19:47;;;;;;;;;;;22.50;99.20;;;;;;5080866;28;20373;-41
2023/06/18 07:22:14;;;;;;;;;;;22.50;98.90;;;;;;5062831;28;19978;-39
2023/06/18 07:24:40;;;;;;;;;;;22.60;98.80;;;;;;5075901;28;19928;-41
2023/06/18 07:27:07;;;;;;;;;;;22.70;98.80;;;;;;5065009;28;20385;-38
2023/06/18 07:29:34;;;;;;;;;;;22.80;98.20;;;;;;5065647;28;19929;-41
2023/06/18 07:32:00;;;;;;;;;;;22.90;98.30;;;;;;5070624;28;19982;-40
2023/06/18 07:34:28;;;;;;;;;;;22.90;98.00;;;;;;5053251;28;20015;-40
2023/06/18 07:36:56;;;;;;;;;;;23.10;98.10;;;;;;5071411;28;19929;-41
2023/06/18 07:39:23;;;;;;;;;;;23.30;97.80;;;;;;5071038;28;21959;-41
2023/06/18 07:41:49;;;;;;;;;;;23.40;97.60;;;;;;5056345;28;19924;-39
2023/06/18 07:44:16;;;;;;;;;;;23.60;97.50;;;;;;5068295;28;19932;-39
2023/06/18 07:46:43;;;;;;;;;;;23.70;96.90;;;;;;5071912;28;19963;-39
2023/06/18 07:49:10;;;;;;;;;;;23.90;96.90;;;;;;5069673;28;19924;-41
2023/06/18 07:51:38;;;;;;;;;;;24.10;96.90;;;;;;5069890;28;20283;-42
2023/06/18 07:54:05;;;;;;;;;;;24.20;96.70;;;;;;5067205;28;19928;-40
2023/06/18 07:56:32;;;;;;;;;;;24.40;96.50;;;;;;5068390;28;19986;-40
2023/06/18 07:58:58;;;;;;;;;;;24.60;96.10;;;;;;5062202;28;20373;-41
2023/06/18 08:01:25;;;;;;;;;;;24.70;95.40;;;;;;5069407;28;20350;-38
2023/06/18 08:03:52;;;;;;;;;;;24.80;95.40;;;;;;5072855;28;20342;-41
2023/06/18 08:06:18;;;;;;;;;;;24.90;94.80;;;;;;5073073;28;19971;-42
2023/06/18 08:08:48;;;;;;;;;;;25.00;94.50;;;;;;5042442;28;20020;-40
2023/06/18 08:11:14;;;;;;;;;;;25.10;94.30;;;;;;5065237;28;19928;-39
2023/06/18 08:13:41;;;;;;;;;;;25.20;94.70;;;;;;5066727;28;20327;-42
2023/06/18 08:16:07;;;;;;;;;;;25.40;94.00;;;;;;5069936;28;19928;-42
2023/06/18 08:18:35;;;;;;;;;;;25.60;93.50;;;;;;5069771;28;19963;-39
2023/06/18 08:21:02;;;;;;;;;;;25.70;93.10;;;;;;5051580;28;19931;-44
2023/06/18 08:23:29;;;;;;;;;;;25.90;93.20;;;;;;5061845;28;19924;-41
2023/06/18 08:25:57;;;;;;;;;;;26.10;92.50;;;;;;5070982;28;19978;-41
2023/06/18 08:28:23;;;;;;;;;;;26.20;92.40;;;;;;5073020;28;19960;-40
2023/06/18 08:30:50;;;;;;;;;;;26.40;92.20;;;;;;5081891;28;19924;-41
2023/06/18 08:33:17;;;;;;;;;;;26.50;91.40;;;;;;5067612;28;19935;-39
2023/06/18 08:35:43;;;;;;;;;;;26.60;91.30;;;;;;5056238;28;19994;-41
2023/06/18 08:38:10;;;;;;;;;;;26.70;91.00;;;;;;5049129;28;20272;-42
2023/06/18 08:40:37;;;;;;;;;;;26.80;90.40;;;;;;5067883;28;19968;-42
2023/06/18 08:43:09;;;;;;;;;;;27.00;91.40;;;;;;5043283;28;19925;-41
2023/06/18 08:45:36;;;;;;;;;;;27.20;90.40;;;;;;5074180;28;19925;-42
2023/06/18 08:48:04;;;;;;;;;;;27.30;90.50;;;;;;5068496;28;19932;-41
2023/06/18 08:50:30;;;;;;;;;;;27.50;90.50;;;;;;5074005;28;20327;-41
2023/06/18 08:52:58;;;;;;;;;;;27.60;88.50;;;;;;5074696;28;19928;-42
2023/06/18 08:55:25;;;;;;;;;;;27.70;88.40;;;;;;5088242;28;19939;-42
2023/06/18 08:57:53;;;;;;;;;;;27.90;86.60;;;;;;5073735;28;19944;-41
2023/06/18 09:00:21;;;;;;;;;;;27.90;84.40;;;;;;5068793;28;19970;-42
2023/06/18 09:02:47;;;;;;;;;;;27.80;80.80;;;;;;5047848;28;20392;-41
2023/06/18 09:05:14;;;;;;;;;;;27.80;81.10;;;;;;5072891;28;19948;-42
2023/06/18 09:07:41;;;;;;;;;;;27.90;80.90;;;;;;5070985;28;20468;-42
2023/06/18 09:10:08;;;;;;;;;;;28.00;81.00;;;;;;5056988;28;19929;-40
2023/06/18 09:12:35;;;;;;;;;;;28.10;82.00;;;;;;5074495;28;20296;-41
2023/06/18 09:15:01;;;;;;;;;;;28.20;78.10;;;;;;5080533;28;19985;-41
2023/06/18 09:17:29;;;;;;;;;;;28.30;75.70;;;;;;5071171;28;19924;-39
2023/06/18 09:19:56;;;;;;;;;;;28.40;76.10;;;;;;5059037;28;20323;-42
2023/06/18 09:22:23;;;;;;;;;;;28.50;75.50;;;;;;5063690;28;19955;-38
2023/06/18 09:24:56;;;;;;;;;;;28.60;73.70;;;;;;5047053;28;19929;-41
2023/06/18 09:27:22;;;;;;;;;;;28.80;75.20;;;;;;5068579;28;19981;-41
2023/06/18 09:29:49;;;;;;;;;;;29.00;71.20;;;;;;5055532;28;19978;-40
2023/06/18 09:32:16;;;;;;;;;;;29.10;72.60;;;;;;5073072;28;19931;-39
2023/06/18 09:34:45;;;;;;;;;;;29.20;71.30;;;;;;5050544;28;20392;-41
2023/06/18 09:37:13;;;;;;;;;;;29.40;71.70;;;;;;5052402;28;20438;-39
2023/06/18 09:39:40;;;;;;;;;;;29.50;71.50;;;;;;5072374;28;19994;-40
2023/06/18 09:42:07;;;;;;;;;;;29.70;69.40;;;;;;5043798;28;20343;-42
2023/06/18 09:44:34;;;;;;;;;;;29.90;71.40;;;;;;5046344;28;20175;-41
2023/06/18 09:47:02;;;;;;;;;;;30.10;70.40;;;;;;5072990;28;19928;-41
2023/06/18 09:49:29;;;;;;;;;;;30.30;66.50;;;;;;5052517;28;20061;-42
2023/06/18 09:51:57;;;;;;;;;;;30.40;67.50;;;;;;5052914;28;19974;-42
2023/06/18 09:54:23;;;;;;;;;;;30.50;66.70;;;;;;5067957;28;20430;-43
2023/06/18 09:56:55;;;;;;;;;;;30.60;65.50;;;;;;5067861;28;19945;-42
2023/06/18 09:59:23;;;;;;;;;;;30.70;64.40;;;;;;5069086;28;19928;-42
2023/06/18 10:01:49;;;;;;;;;;;30.90;65.70;;;;;;5072931;28;19979;-39
2023/06/18 10:04:16;;;;;;;;;;;31.00;64.20;;;;;;5069076;28;19956;-41
2023/06/18 10:06:45;;;;;;;;;;;31.00;63.20;;;;;;5069223;28;19925;-42
2023/06/18 10:09:13;;;;;;;;;;;31.10;66.30;;;;;;5071494;28;19924;-43
2023/06/18 10:11:40;;;;;;;;;;;31.20;62.10;;;;;;5073061;28;20334;-42
2023/06/18 10:14:10;;;;;;;;;;;31.10;63.60;;;;;;5063344;28;19968;-42
2023/06/18 10:16:37;;;;;;;;;;;31.10;62.20;;;;;;5074982;28;19924;-42
2023/06/18 10:19:03;;;;;;;;;;;31.00;61.30;;;;;;5078283;28;19963;-35
2023/06/18 10:21:31;;;;;;;;;;;30.90;60.60;;;;;;5068105;28;19932;-39
2023/06/18 10:24:00;;;;;;;;;;;30.80;63.00;;;;;;5050102;28;19928;-42
2023/06/18 10:26:27;;;;;;;;;;;30.80;62.60;;;;;;5049475;28;19929;-40
2023/06/18 10:28:55;;;;;;;;;;;30.80;62.80;;;;;;5068485;28;19970;-42
2023/06/18 10:31:22;;;;;;;;;;;30.80;64.30;;;;;;5046561;28;19974;-41
2023/06/18 10:33:48;;;;;;;;;;;30.90;62.10;;;;;;5087971;28;19928;-41
2023/06/18 10:36:15;;;;;;;;;;;31.00;64.60;;;;;;5072225;28;19928;-40
2023/06/18 10:38:42;;;;;;;;;;;31.10;61.90;;;;;;5060345;28;20019;-43
2023/06/18 10:41:10;;;;;;;;;;;31.00;61.90;;;;;;5059815;28;20393;-41
2023/06/18 10:43:40;;;;;;;;;;;31.00;61.10;;;;;;5074157;28;19925;-42
2023/06/18 10:46:10;;;;;;;;;;;30.80;60.00;;;;;;5067232;28;19947;-40
2023/06/18 10:48:37;;;;;;;;;;;30.60;61.50;;;;;;5073542;28;19971;-41
2023/06/18 10:51:14;;;;;;;;;;;30.50;58.40;;;;;;5073183;28;19925;-42
2023/06/18 10:53:40;;;;;;;;;;;30.40;61.30;;;;;;5070507;28;20003;-40
2023/06/18 10:56:07;;;;;;;;;;;30.30;60.50;;;;;;5084460;28;19959;-43
2023/06/18 10:58:34;;;;;;;;;;;30.40;63.40;;;;;;5072451;28;19928;-40
2023/06/18 11:01:02;;;;;;;;;;;30.50;59.10;;;;;;5072110;28;20033;-43
2023/06/18 11:03:33;;;;;;;;;;;30.40;60.20;;;;;;5071872;28;19990;-43
2023/06/18 11:06:01;;;;;;;;;;;30.40;62.60;;;;;;5044113;28;19925;-43
2023/06/18 11:08:28;;;;;;;;;;;30.40;61.30;;;;;;5067073;28;19970;-43
2023/06/18 11:11:00;;;;;;;;;;;30.50;61.60;;;;;;5058184;28;19977;-42
2023/06/18 11:13:28;;;;;;;;;;;30.60;60.70;;;;;;5069536;28;19924;-42
2023/06/18 11:15:58;;;;;;;;;;;30.50;59.80;;;;;;5085205;28;19924;-42
2023/06/18 11:18:26;;;;;;;;;;;30.40;59.30;;;;;;5068801;28;19956;-42
2023/06/18 11:20:54;;;;;;;;;;;30.30;58.80;;;;;;5066588;28;19925;-43
2023/06/18 11:23:21;;;;;;;;;;;30.20;58.30;;;;;;5072193;28;20399;-42
2023/06/18 11:25:49;;;;;;;;;;;30.20;59.20;;;;;;5067833;28;20391;-42
2023/06/18 11:28:16;;;;;;;;;;;30.20;58.90;;;;;;5085476;28;20292;-42
2023/06/18 11:30:46;;;;;;;;;;;30.20;60.00;;;;;;5055512;28;19925;-40
2023/06/18 11:33:13;;;;;;;;;;;30.30;58.20;;;;;;5063344;28;19999;-41
2023/06/18 11:35:41;;;;;;;;;;;30.30;59.30;;;;;;5057557;28;19928;-42
2023/06/18 11:38:07;;;;;;;;;;;30.40;59.80;;;;;;5073126;28;20394;-41
2023/06/18 11:40:34;;;;;;;;;;;30.60;59.80;;;;;;5066330;28;20018;-41
2023/06/18 11:43:01;;;;;;;;;;;30.70;60.60;;;;;;5054362;28;19924;-42
2023/06/18 11:45:28;;;;;;;;;;;31.00;61.20;;;;;;5051633;28;19924;-40
2023/06/18 11:47:55;;;;;;;;;;;31.20;62.10;;;;;;5083494;28;19928;-42
2023/06/18 11:50:22;;;;;;;;;;;31.40;58.90;;;;;;5052387;28;21326;-42
2023/06/18 11:52:50;;;;;;;;;;;31.50;58.80;;;;;;5054756;28;20435;-42
2023/06/18 11:55:18;;;;;;;;;;;31.50;59.20;;;;;;5068841;28;20077;-41
2023/06/18 11:57:44;;;;;;;;;;;31.60;59.20;;;;;;5060049;28;20019;-42
2023/06/18 12:00:12;;;;;;;;;;;31.70;57.80;;;;;;5065863;28;19986;-41
2023/06/18 12:02:39;;;;;;;;;;;31.80;58.10;;;;;;5068010;28;19924;-42
2023/06/18 12:05:06;;;;;;;;;;;31.80;59.50;;;;;;5069671;28;20365;-40
2023/06/18 12:07:33;;;;;;;;;;;32.00;59.60;;;;;;5063471;28;19998;-41
2023/06/18 12:10:05;;;;;;;;;;;32.00;58.80;;;;;;5070598;28;20002;-43
2023/06/18 12:12:34;;;;;;;;;;;32.10;59.50;;;;;;5083674;28;19985;-42
2023/06/18 12:15:04;;;;;;;;;;;32.30;58.60;;;;;;5078132;28;20350;-41
2023/06/18 12:17:32;;;;;;;;;;;32.30;57.50;;;;;;5062317;28;20014;-41
2023/06/18 12:19:59;;;;;;;;;;;32.40;56.90;;;;;;5066134;28;19924;-42
2023/06/18 12:22:26;;;;;;;;;;;32.50;58.70;;;;;;5065000;28;19924;-42
2023/06/18 12:24:53;;;;;;;;;;;32.70;57.70;;;;;;5069897;28;20023;-43
2023/06/18 12:27:25;;;;;;;;;;;32.80;56.90;;;;;;5071146;28;19929;-42
2023/06/18 12:29:52;;;;;;;;;;;32.90;57.40;;;;;;5070379;28;19924;-41
2023/06/18 12:32:18;;;;;;;;;;;33.10;55.50;;;;;;5051376;28;19925;-41
2023/06/18 12:34:45;;;;;;;;;;;33.10;54.60;;;;;;5068631;28;20372;-42
2023/06/18 12:37:12;;;;;;;;;;;33.20;56.50;;;;;;5067406;28;19972;-40
2023/06/18 12:39:38;;;;;;;;;;;33.20;55.50;;;;;;5067687;28;20707;-38
2023/06/18 12:42:08;;;;;;;;;;;33.20;54.60;;;;;;5068096;28;19928;-42
2023/06/18 12:44:36;;;;;;;;;;;33.10;54.00;;;;;;5066651;28;20026;-42
2023/06/18 12:47:04;;;;;;;;;;;32.90;52.50;;;;;;5052339;28;20365;-42
2023/06/18 12:49:37;;;;;;;;;;;32.80;55.20;;;;;;5070118;28;19928;-42
2023/06/18 12:52:04;;;;;;;;;;;32.70;54.20;;;;;;5069787;28;20310;-42
2023/06/18 12:54:31;;;;;;;;;;;32.60;53.20;;;;;;5064853;28;19933;-41
2023/06/18 12:56:58;;;;;;;;;;;32.40;53.20;;;;;;5069243;28;19970;-41
2023/06/18 12:59:25;;;;;;;;;;;32.30;55.00;;;;;;5051482;28;19975;-41
2023/06/18 13:01:53;;;;;;;;;;;32.20;56.30;;;;;;5066262;28;19932;-40
2023/06/18 13:04:21;;;;;;;;;;;32.30;56.60;;;;;;5069778;28;19928;-42
2023/06/18 13:06:47;;;;;;;;;;;32.30;55.40;;;;;;5069839;28;19925;-42
2023/06/18 13:09:14;;;;;;;;;;;32.30;53.10;;;;;;5070311;28;19925;-40
2023/06/18 13:11:41;;;;;;;;;;;32.30;55.00;;;;;;5046543;28;20391;-42
2023/06/18 13:14:07;;;;;;;;;;;32.30;55.10;;;;;;5070922;28;19955;-42
2023/06/18 13:16:34;;;;;;;;;;;32.40;55.40;;;;;;5057506;28;20429;-41
2023/06/18 13:19:04;;;;;;;;;;;32.50;53.60;;;;;;5054859;28;19980;-41
2023/06/18 13:21:31;;;;;;;;;;;32.40;54.40;;;;;;5049674;28;19929;-42
2023/06/18 13:23:58;;;;;;;;;;;32.40;55.10;;;;;;5072423;28;19924;-43
2023/06/18 13:26:29;;;;;;;;;;;32.40;52.70;;;;;;5077186;28;19979;-43
2023/06/18 13:28:55;;;;;;;;;;;32.40;55.40;;;;;;5072538;28;19947;-42
2023/06/18 13:31:22;;;;;;;;;;;32.50;56.00;;;;;;5071839;28;20492;-43
2023/06/18 13:33:49;;;;;;;;;;;32.60;55.50;;;;;;5071441;28;20441;-42
2023/06/18 13:36:17;;;;;;;;;;;32.60;55.20;;;;;;5071356;28;20014;-42
2023/06/18 13:38:44;;;;;;;;;;;32.70;56.10;;;;;;5072234;28;19932;-41
2023/06/18 13:41:10;;;;;;;;;;;32.70;55.90;;;;;;5051197;28;19930;-41
2023/06/18 13:43:37;;;;;;;;;;;32.70;52.30;;;;;;5070961;28;19931;-41
2023/06/18 13:46:03;;;;;;;;;;;32.50;53.10;;;;;;5051722;28;19975;-41
2023/06/18 13:48:30;;;;;;;;;;;32.40;53.20;;;;;;5053561;28;19929;-41
2023/06/18 13:50:57;;;;;;;;;;;32.30;54.10;;;;;;5043920;28;19930;-42
2023/06/18 13:53:25;;;;;;;;;;;32.20;54.60;;;;;;5071460;28;19924;-42
2023/06/18 13:55:51;;;;;;;;;;;32.30;55.70;;;;;;5063107;28;19924;-42
2023/06/18 13:58:18;;;;;;;;;;;32.20;52.70;;;;;;5055156;28;20419;-42
2023/06/18 14:00:45;;;;;;;;;;;32.20;51.80;;;;;;5055646;28;19925;-42
2023/06/18 14:03:12;;;;;;;;;;;32.00;51.70;;;;;;5073894;28;19931;-43
2023/06/18 14:05:38;;;;;;;;;;;32.00;54.90;;;;;;5050517;28;19925;-41
2023/06/18 14:08:05;;;;;;;;;;;32.00;52.30;;;;;;5071351;28;19932;-43
2023/06/18 14:10:33;;;;;;;;;;;32.00;52.00;;;;;;5047177;28;19956;-42
2023/06/18 14:13:00;;;;;;;;;;;31.80;53.00;;;;;;5044740;28;20089;-43
2023/06/18 14:15:27;;;;;;;;;;;31.80;54.30;;;;;;5073400;28;20450;-41